createdAt,value
2018-10-18T00:03:17.020Z,21.33
2018-10-18T00:08:20.561Z,23.63
2018-10-18T00:13:24.150Z,16.00
2018-10-18T00:18:27.962Z,18.20
2018-10-18T00:23:32.646Z,15.30
2018-10-18T00:28:36.197Z,21.30
2018-10-18T00:33:42.225Z,17.20
2018-10-18T00:38:45.828Z,18.27
2018-10-18T00:43:49.385Z,20.20
2018-10-18T00:48:52.948Z,17.33
2018-10-18T00:53:56.716Z,17.10
2018-10-18T00:59:00.257Z,16.77
2018-10-18T01:09:18.379Z,21.50
2018-10-18T01:14:21.959Z,15.50
2018-10-18T01:19:25.697Z,18.10
2018-10-18T01:24:29.330Z,18.20
2018-10-18T01:29:51.407Z,19.53
2018-10-18T01:34:55.011Z,18.90
2018-10-18T01:39:58.663Z,20.93
2018-10-18T01:45:08.699Z,19.07
2018-10-18T01:50:22.279Z,18.13
2018-10-18T01:55:26.003Z,18.87
2018-10-18T02:00:29.680Z,20.40
2018-10-18T02:05:33.255Z,20.73
2018-10-18T02:10:36.849Z,18.47
2018-10-18T02:15:40.419Z,17.37
2018-10-18T02:20:44.250Z,22.87
2018-10-18T02:25:48.016Z,17.00
2018-10-18T02:30:51.990Z,21.33
2018-10-18T02:35:55.756Z,21.80
2018-10-18T02:41:00.537Z,19.13
2018-10-18T02:46:35.097Z,19.47
2018-10-18T02:51:38.801Z,20.43
2018-10-18T02:56:42.676Z,21.60
2018-10-18T03:01:46.279Z,25.63
2018-10-18T03:06:49.954Z,25.87
2018-10-18T03:11:54.238Z,21.07
2018-10-18T03:16:58.547Z,23.80
2018-10-18T03:22:02.180Z,23.30
2018-10-18T03:27:06.318Z,25.03
2018-10-18T03:32:09.930Z,22.47
2018-10-18T03:37:13.568Z,23.73
2018-10-18T03:42:18.132Z,22.20
2018-10-18T03:47:22.294Z,25.80
2018-10-18T03:52:25.872Z,29.33
2018-10-18T03:57:29.749Z,22.23
2018-10-18T04:02:33.325Z,24.03
2018-10-18T04:07:36.911Z,28.20
2018-10-18T04:12:43.185Z,22.20
2018-10-18T04:17:46.950Z,22.23
2018-10-18T04:22:51.035Z,26.07
2018-10-18T04:27:54.611Z,25.20
2018-10-18T04:32:58.321Z,23.70
2018-10-18T04:38:02.445Z,26.30
2018-10-18T04:43:06.306Z,23.03
2018-10-18T04:48:10.011Z,22.83
2018-10-18T04:53:14.010Z,24.93
2018-10-18T04:58:17.952Z,28.00
2018-10-18T05:03:21.548Z,29.30
2018-10-18T05:08:26.389Z,26.03
2018-10-18T05:13:32.740Z,31.23
2018-10-18T05:18:36.459Z,28.97
2018-10-18T05:23:40.723Z,29.07
2018-10-18T05:28:44.360Z,30.23
2018-10-18T05:33:47.989Z,27.57
2018-10-18T05:38:51.548Z,34.13
2018-10-18T05:43:55.271Z,32.27
2018-10-18T05:48:58.899Z,25.90
2018-10-18T05:54:02.910Z,34.40
2018-10-18T05:59:06.691Z,27.67
2018-10-18T06:04:14.379Z,30.60
2018-10-18T06:09:28.888Z,31.70
2018-10-18T06:14:32.611Z,29.30
2018-10-18T06:19:42.504Z,26.23
2018-10-18T06:24:46.533Z,32.43
2018-10-18T06:29:50.379Z,33.23
2018-10-18T06:34:54.223Z,33.80
2018-10-18T06:39:57.911Z,32.97
2018-10-18T06:45:01.730Z,30.40
2018-10-18T06:50:06.539Z,29.50
2018-10-18T06:55:10.347Z,34.43
2018-10-18T07:00:16.070Z,32.33
2018-10-18T07:05:19.678Z,37.10
2018-10-18T07:10:23.965Z,34.80
2018-10-18T07:15:27.869Z,48.20
2018-10-18T07:20:31.524Z,44.87
2018-10-18T07:25:35.132Z,36.23
2018-10-18T07:30:38.762Z,40.27
2018-10-18T07:35:42.595Z,39.53
2018-10-18T07:40:46.337Z,42.00
2018-10-18T07:45:50.435Z,34.57
2018-10-18T07:50:54.852Z,43.20
2018-10-18T07:55:59.145Z,40.80
2018-10-18T08:01:04.248Z,38.23
2018-10-18T08:06:08.104Z,40.73
2018-10-18T08:11:11.790Z,40.73
2018-10-18T08:16:15.800Z,48.37
2018-10-18T08:21:19.683Z,51.33
2018-10-18T08:26:23.319Z,53.00
2018-10-18T08:31:27.300Z,52.03
2018-10-18T08:36:30.899Z,57.77
2018-10-18T08:41:35.227Z,59.43
2018-10-18T08:46:38.831Z,56.63
2018-10-18T08:51:42.643Z,55.60
2018-10-18T08:56:46.688Z,52.17
2018-10-18T09:01:50.262Z,71.30
2018-10-18T09:06:54.283Z,53.97
2018-10-18T09:11:57.955Z,54.93
2018-10-18T09:17:01.543Z,50.37
2018-10-18T09:22:08.648Z,50.30
2018-10-18T09:27:12.540Z,42.97
2018-10-18T09:32:16.501Z,45.17
2018-10-18T09:37:20.512Z,43.03
2018-10-18T09:42:25.408Z,46.90
2018-10-18T09:47:29.037Z,47.23
2018-10-18T09:52:32.685Z,44.63
2018-10-18T09:57:36.274Z,47.50
2018-10-18T10:02:46.082Z,46.80
2018-10-18T10:07:49.767Z,54.03
2018-10-18T10:12:53.378Z,46.67
2018-10-18T10:17:57.038Z,46.50
2018-10-18T10:23:01.728Z,46.30
2018-10-18T10:28:05.714Z,42.63
2018-10-18T10:33:09.718Z,44.90
2018-10-18T10:38:13.211Z,46.70
2018-10-18T10:43:16.875Z,42.10
2018-10-18T10:48:23.720Z,39.60
2018-10-18T10:53:28.063Z,41.90
2018-10-18T10:58:31.717Z,40.70
2018-10-18T11:03:38.544Z,40.97
2018-10-18T11:08:47.530Z,43.87
2018-10-18T11:13:52.089Z,32.50
2018-10-18T11:18:55.583Z,30.10
2018-10-18T11:23:59.522Z,33.97
2018-10-18T11:29:03.171Z,34.77
2018-10-18T11:34:06.850Z,33.43
2018-10-18T11:39:11.020Z,35.47
2018-10-18T11:44:14.814Z,32.43
2018-10-18T11:49:18.400Z,29.10
2018-10-18T11:54:22.116Z,32.90
2018-10-18T11:59:25.995Z,35.40
2018-10-18T12:04:29.809Z,32.47
2018-10-18T12:09:33.575Z,35.23
2018-10-18T12:14:37.252Z,30.67
2018-10-18T12:19:41.532Z,27.57
2018-10-18T12:24:45.500Z,26.23
2018-10-18T12:29:49.772Z,23.40
2018-10-18T12:34:53.449Z,22.30
2018-10-18T12:39:57.092Z,21.50
2018-10-18T12:45:00.711Z,21.57
2018-10-18T12:50:04.789Z,20.07
2018-10-18T12:55:09.374Z,20.23
2018-10-18T13:00:14.045Z,17.50
2018-10-18T13:05:17.704Z,24.63
2018-10-18T13:10:21.372Z,18.43
2018-10-18T13:15:25.124Z,19.93
2018-10-18T13:20:28.765Z,19.77
2018-10-18T13:25:32.127Z,18.97
2018-10-18T13:30:35.741Z,20.60
2018-10-18T13:35:38.982Z,19.60
2018-10-18T13:40:42.599Z,17.80
2018-10-18T13:45:45.884Z,16.00
2018-10-18T13:50:49.243Z,22.80
2018-10-18T13:55:52.867Z,18.80
2018-10-18T14:00:56.504Z,24.20
2018-10-18T14:06:00.292Z,16.63
2018-10-18T14:11:05.454Z,16.70
2018-10-18T14:16:09.182Z,13.73
2018-10-18T14:21:12.906Z,21.00
2018-10-18T14:26:16.706Z,17.10
2018-10-18T14:31:20.147Z,16.53
2018-10-18T14:36:23.526Z,16.00
2018-10-18T14:41:27.122Z,13.23
2018-10-18T14:46:31.282Z,14.97
2018-10-18T14:51:34.988Z,15.43
2018-10-18T14:56:40.064Z,18.33
2018-10-18T15:01:44.420Z,13.07
2018-10-18T15:06:48.063Z,17.70
2018-10-18T15:11:51.657Z,18.60
2018-10-18T15:16:58.494Z,20.83
2018-10-18T15:22:02.159Z,15.30
2018-10-18T15:27:07.357Z,16.90
2018-10-18T15:32:11.134Z,17.33
2018-10-18T15:37:14.305Z,16.40
2018-10-18T15:42:18.526Z,19.33
2018-10-18T15:47:22.491Z,24.87
2018-10-18T15:52:26.002Z,23.70
2018-10-18T15:57:29.832Z,19.43
2018-10-18T16:02:33.544Z,20.57
2018-10-18T16:07:37.663Z,21.97
2018-10-18T16:12:41.546Z,35.63
2018-10-18T16:17:45.359Z,26.13
2018-10-18T16:22:49.354Z,20.87
2018-10-18T16:27:53.282Z,18.67
2018-10-18T16:32:56.882Z,16.33
2018-10-18T16:38:00.716Z,17.90
2018-10-18T16:43:04.483Z,15.43
2018-10-18T16:48:08.560Z,16.73
2018-10-18T16:53:12.235Z,17.53
2018-10-18T16:58:16.039Z,18.77
2018-10-18T17:03:19.577Z,36.43
2018-10-18T17:08:23.219Z,27.23
2018-10-18T17:13:27.147Z,21.97
2018-10-18T17:18:30.886Z,23.20
2018-10-18T17:23:34.805Z,20.57
2018-10-18T17:28:38.979Z,20.40
2018-10-18T17:33:42.559Z,22.63
2018-10-18T17:38:46.926Z,19.93
2018-10-18T17:43:50.506Z,23.40
2018-10-18T17:48:54.086Z,18.53
2018-10-18T17:53:58.281Z,17.40
2018-10-18T17:59:01.927Z,18.50
2018-10-18T18:04:06.078Z,20.13
2018-10-18T18:09:09.608Z,21.10
2018-10-18T18:14:13.284Z,21.70
2018-10-18T18:19:17.156Z,25.37
2018-10-18T18:24:20.752Z,22.67
2018-10-18T18:29:24.327Z,29.07
2018-10-18T18:34:28.848Z,26.27
2018-10-18T18:39:32.479Z,27.70
2018-10-18T18:44:36.127Z,24.67
2018-10-18T18:49:39.741Z,28.63
2018-10-18T18:54:44.912Z,30.33
2018-10-18T18:59:48.584Z,23.60
2018-10-18T19:04:52.232Z,27.27
2018-10-18T19:09:56.300Z,25.30
2018-10-18T19:15:00.047Z,24.27
2018-10-18T19:20:07.109Z,23.10
2018-10-18T19:25:11.034Z,22.40
2018-10-18T19:30:16.773Z,25.83
2018-10-18T19:35:20.479Z,29.80
2018-10-18T19:40:24.274Z,33.00
2018-10-18T19:45:28.041Z,34.73
2018-10-18T19:50:31.632Z,37.43
2018-10-18T19:55:36.913Z,30.70
2018-10-18T20:00:40.547Z,29.43
2018-10-18T20:05:45.110Z,34.27
2018-10-18T20:10:49.304Z,26.50
2018-10-18T20:15:52.975Z,31.43
2018-10-18T20:20:56.805Z,30.80
2018-10-18T20:26:00.663Z,34.73
2018-10-18T20:31:04.384Z,38.43
2018-10-18T20:36:08.364Z,36.77
2018-10-18T20:41:12.055Z,35.57
2018-10-18T20:46:15.777Z,36.90
2018-10-18T20:51:19.463Z,43.50
2018-10-18T20:56:23.529Z,38.43
2018-10-18T21:01:28.816Z,37.80
2018-10-18T21:06:32.632Z,36.90
2018-10-18T21:11:36.111Z,40.17
2018-10-18T21:16:40.182Z,42.63
2018-10-18T21:21:44.358Z,38.53
2018-10-18T21:26:48.052Z,37.23
2018-10-18T21:31:51.700Z,37.43
2018-10-18T21:36:55.394Z,36.47
2018-10-18T21:41:59.187Z,40.67
2018-10-18T21:47:03.737Z,42.00
2018-10-18T21:52:07.785Z,34.43
2018-10-18T21:57:20.514Z,31.50
2018-10-18T22:02:24.581Z,30.77
2018-10-18T22:07:28.194Z,36.30
2018-10-18T22:12:31.859Z,32.00
2018-10-18T22:17:37.711Z,35.33
2018-10-18T22:22:41.340Z,37.40
2018-10-18T22:27:45.139Z,33.20
2018-10-18T22:32:48.994Z,31.30
2018-10-18T22:37:59.681Z,29.10
2018-10-18T22:43:03.731Z,39.60
2018-10-18T22:48:07.647Z,38.20
2018-10-18T22:53:11.280Z,38.00
2018-10-18T22:58:14.871Z,42.90
2018-10-18T23:03:19.963Z,41.53
2018-10-18T23:08:24.265Z,39.87
2018-10-18T23:13:27.822Z,41.70
2018-10-18T23:18:33.449Z,42.50
2018-10-18T23:28:47.743Z,37.07
2018-10-18T23:33:51.717Z,36.70
2018-10-18T23:38:55.440Z,40.13
2018-10-18T23:43:59.260Z,40.80
2018-10-18T23:49:04.744Z,46.97
2018-10-18T23:54:08.941Z,39.03
2018-10-18T23:59:12.700Z,45.10
